createdAt,value
2023-01-17T00:00:52.691Z,48.38
2023-01-17T00:01:52.677Z,48.53
2023-01-17T00:02:52.690Z,48.49
2023-01-17T00:03:52.690Z,48.48
2023-01-17T00:04:52.689Z,48.63
2023-01-17T00:05:52.677Z,48.65
2023-01-17T00:06:52.691Z,48.67
2023-01-17T00:07:52.755Z,48.61
2023-01-17T00:08:52.691Z,48.86
2023-01-17T00:09:52.678Z,48.74
2023-01-17T00:10:52.691Z,48.93
2023-01-17T00:11:52.691Z,49.13
2023-01-17T00:12:52.691Z,49.13
2023-01-17T00:13:52.678Z,49.31
2023-01-17T00:14:52.692Z,49.33
2023-01-17T00:15:52.692Z,49.48
2023-01-17T00:16:52.678Z,49.54
2023-01-17T00:17:52.679Z,49.56
2023-01-17T00:18:52.692Z,49.62
2023-01-17T00:19:52.733Z,49.61
2023-01-17T00:20:52.677Z,49.63
2023-01-17T00:21:52.692Z,49.75
2023-01-17T00:22:52.693Z,49.9
2023-01-17T00:23:52.692Z,49.91
2023-01-17T00:24:52.679Z,50.2
2023-01-17T00:25:52.693Z,50.5
2023-01-17T00:26:52.694Z,50.53
2023-01-17T00:27:52.692Z,50.63
2023-01-17T00:28:52.680Z,50.66
2023-01-17T00:29:52.693Z,50.75
2023-01-17T00:30:52.694Z,50.8
2023-01-17T00:31:52.680Z,50.77
2023-01-17T00:32:52.680Z,50.74
2023-01-17T00:33:52.694Z,50.77
2023-01-17T00:34:52.695Z,50.72
2023-01-17T00:35:52.679Z,50.69
2023-01-17T00:36:52.742Z,50.7
2023-01-17T00:37:52.694Z,50.63
2023-01-17T00:38:52.693Z,50.68
2023-01-17T00:39:52.681Z,50.69
2023-01-17T00:40:52.694Z,50.6
2023-01-17T00:41:52.760Z,50.57
2023-01-17T00:42:52.694Z,50.62
2023-01-17T00:43:52.682Z,50.58
2023-01-17T00:44:52.695Z,50.59
2023-01-17T00:45:52.696Z,50.55
2023-01-17T00:46:52.694Z,50.45
2023-01-17T00:47:52.682Z,50.37
2023-01-17T00:48:52.758Z,50.32
2023-01-17T00:49:52.695Z,50.3
2023-01-17T00:50:52.682Z,50.22
2023-01-17T00:51:52.683Z,50.17
2023-01-17T00:52:52.696Z,50.17
2023-01-17T00:53:52.696Z,49.98
2023-01-17T00:54:52.682Z,50.02
2023-01-17T00:55:52.696Z,50.23
2023-01-17T00:56:52.696Z,50.13
2023-01-17T00:57:52.695Z,50.09
2023-01-17T00:58:52.683Z,50.11
2023-01-17T00:59:52.695Z,50.09
2023-01-17T01:00:52.739Z,50
2023-01-17T01:01:52.695Z,50.17
2023-01-17T01:02:52.684Z,50.01
2023-01-17T01:03:52.697Z,50.03
2023-01-17T01:04:52.697Z,49.98
2023-01-17T01:05:52.696Z,49.95
2023-01-17T01:06:52.684Z,49.91
2023-01-17T01:07:52.697Z,50.1
2023-01-17T01:08:52.697Z,50.05
2023-01-17T01:09:52.684Z,50.01
2023-01-17T01:10:52.685Z,50.06
2023-01-17T01:11:52.698Z,50.02
2023-01-17T01:12:52.738Z,50.25
2023-01-17T01:13:52.684Z,50.18
2023-01-17T01:14:52.698Z,50.09
2023-01-17T01:15:52.698Z,50.2
2023-01-17T01:16:52.697Z,50.16
2023-01-17T01:17:52.697Z,50.02
2023-01-17T01:18:52.698Z,50.19
2023-01-17T01:19:52.699Z,49.9
2023-01-17T01:20:52.698Z,49.95
2023-01-17T01:21:52.685Z,49.91
2023-01-17T01:22:52.699Z,49.99
2023-01-17T01:23:52.699Z,49.89
2023-01-17T01:24:52.685Z,49.99
2023-01-17T01:25:52.686Z,49.93
2023-01-17T01:26:52.698Z,49.86
2023-01-17T01:27:52.699Z,49.9
2023-01-17T01:28:52.686Z,49.89
2023-01-17T01:29:52.740Z,49.9
2023-01-17T01:30:52.698Z,49.78
2023-01-17T01:31:52.698Z,49.82
2023-01-17T01:32:52.686Z,49.8
2023-01-17T01:33:52.699Z,49.57
2023-01-17T01:34:52.699Z,49.68
2023-01-17T01:35:52.699Z,49.52
2023-01-17T01:36:52.685Z,49.53
2023-01-17T01:37:52.700Z,49.4
2023-01-17T01:38:52.700Z,49.31
2023-01-17T01:39:52.700Z,49.41
2023-01-17T01:40:52.688Z,49.42
2023-01-17T01:41:52.700Z,49.38
2023-01-17T01:42:52.701Z,49.23
2023-01-17T01:43:52.687Z,49.34
2023-01-17T01:44:52.688Z,49.36
2023-01-17T01:45:52.701Z,49.23
2023-01-17T01:46:52.701Z,49.38
2023-01-17T01:47:52.686Z,49.31
2023-01-17T01:48:52.701Z,49.23
2023-01-17T01:49:52.701Z,49.05
2023-01-17T01:50:52.700Z,49.23
2023-01-17T01:51:52.688Z,49.14
2023-01-17T01:52:52.701Z,49.1
2023-01-17T01:53:52.701Z,49.2
2023-01-17T01:54:52.701Z,49.2
2023-01-17T01:55:52.689Z,49.29
2023-01-17T01:56:52.702Z,49.52
2023-01-17T01:57:52.702Z,49.21
2023-01-17T01:58:52.689Z,49.33
2023-01-17T01:59:52.689Z,49.34
2023-01-17T02:00:52.701Z,49.43
2023-01-17T02:01:52.701Z,49.42
2023-01-17T02:02:52.689Z,49.42
2023-01-17T02:03:52.690Z,49.42
2023-01-17T02:04:52.703Z,49.43
2023-01-17T02:05:52.702Z,49.28
2023-01-17T02:06:52.690Z,49.27
2023-01-17T02:07:52.703Z,49.11
2023-01-17T02:08:52.702Z,49.23
2023-01-17T02:09:52.702Z,49.25
2023-01-17T02:10:52.690Z,49.38
2023-01-17T02:11:52.702Z,49.42
2023-01-17T02:12:52.703Z,49.4
2023-01-17T02:13:52.704Z,49.44
2023-01-17T02:14:52.691Z,49.31
2023-01-17T02:15:52.704Z,49.33
2023-01-17T02:16:52.704Z,49.17
2023-01-17T02:17:52.689Z,49.27
2023-01-17T02:18:52.691Z,49.24
2023-01-17T02:19:52.704Z,49.32
2023-01-17T02:20:52.705Z,49.28
2023-01-17T02:21:52.691Z,49.35
2023-01-17T02:22:52.704Z,49.38
2023-01-17T02:23:52.705Z,49.29
2023-01-17T02:24:52.704Z,49.27
2023-01-17T02:25:52.690Z,49.45
2023-01-17T02:26:52.705Z,49.53
2023-01-17T02:27:52.705Z,49.51
2023-01-17T02:28:52.704Z,49.34
2023-01-17T02:29:52.691Z,49.37
2023-01-17T02:30:52.705Z,49.41
2023-01-17T02:31:52.705Z,49.35
2023-01-17T02:32:52.704Z,49.18
2023-01-17T02:33:52.693Z,49.19
2023-01-17T02:34:52.729Z,49.12
2023-01-17T02:35:52.707Z,49.31
2023-01-17T02:36:52.692Z,49.15
2023-01-17T02:37:52.693Z,49.13
2023-01-17T02:38:52.706Z,49.04
2023-01-17T02:39:52.707Z,49.09
2023-01-17T02:40:52.693Z,48.99
2023-01-17T02:41:52.705Z,48.98
2023-01-17T02:42:52.706Z,49.09
2023-01-17T02:43:52.705Z,48.97
2023-01-17T02:44:52.693Z,49.07
2023-01-17T02:45:52.707Z,48.94
2023-01-17T02:46:52.710Z,48.91
2023-01-17T02:47:52.707Z,49.09
2023-01-17T02:48:52.694Z,49.05
2023-01-17T02:49:52.707Z,49.06
2023-01-17T02:50:52.708Z,48.99
2023-01-17T02:51:52.706Z,49.01
2023-01-17T02:52:52.694Z,48.92
2023-01-17T02:53:52.707Z,49.06
2023-01-17T02:54:52.707Z,48.83
2023-01-17T02:55:52.694Z,48.81
2023-01-17T02:56:52.695Z,48.75
2023-01-17T02:57:52.707Z,48.62
2023-01-17T02:58:52.707Z,48.91
2023-01-17T02:59:52.694Z,48.89
2023-01-17T03:00:52.708Z,49.04
2023-01-17T03:01:52.707Z,48.94
2023-01-17T03:02:52.707Z,48.88
2023-01-17T03:03:52.695Z,48.86
2023-01-17T03:04:52.708Z,49.05
2023-01-17T03:05:52.708Z,48.75
2023-01-17T03:06:52.708Z,48.69
2023-01-17T03:07:52.696Z,48.84
2023-01-17T03:08:52.708Z,48.85
2023-01-17T03:09:52.709Z,48.79
2023-01-17T03:10:52.695Z,48.81
2023-01-17T03:11:52.696Z,48.75
2023-01-17T03:12:52.709Z,48.69
2023-01-17T03:13:52.710Z,48.79
2023-01-17T03:14:52.696Z,48.69
2023-01-17T03:15:52.749Z,48.68
2023-01-17T03:16:52.709Z,48.55
2023-01-17T03:17:52.708Z,48.68
2023-01-17T03:18:52.694Z,48.64
2023-01-17T03:19:52.710Z,48.52
2023-01-17T03:20:52.709Z,48.64
2023-01-17T03:21:52.710Z,48.72
2023-01-17T03:22:52.696Z,48.79
2023-01-17T03:23:52.710Z,48.8
2023-01-17T03:24:52.710Z,48.78
2023-01-17T03:25:52.710Z,48.97
2023-01-17T03:26:52.697Z,48.9
2023-01-17T03:27:52.709Z,49.09
2023-01-17T03:28:52.710Z,48.92
2023-01-17T03:29:52.697Z,48.87
2023-01-17T03:30:52.698Z,48.87
2023-01-17T03:31:52.711Z,48.9
2023-01-17T03:32:52.711Z,48.84
2023-01-17T03:33:52.698Z,48.79
2023-01-17T03:34:52.711Z,48.76
2023-01-17T03:35:52.711Z,48.89
2023-01-17T03:36:52.710Z,48.83
2023-01-17T03:37:52.698Z,48.86
2023-01-17T03:38:52.711Z,48.91
2023-01-17T03:39:52.711Z,48.83
2023-01-17T03:40:52.711Z,48.86
2023-01-17T03:41:52.699Z,48.85
2023-01-17T03:42:52.711Z,48.85
2023-01-17T03:43:52.713Z,48.7
2023-01-17T03:44:52.698Z,48.72
2023-01-17T03:45:52.699Z,48.69
2023-01-17T03:46:52.712Z,48.49
2023-01-17T03:47:52.712Z,48.62
2023-01-17T03:48:52.699Z,48.65
2023-01-17T03:49:52.760Z,48.92
2023-01-17T03:50:52.712Z,48.52
2023-01-17T03:51:52.712Z,48.61
2023-01-17T03:52:52.699Z,48.62
2023-01-17T03:53:52.713Z,48.61
2023-01-17T03:54:52.712Z,48.72
2023-01-17T03:55:52.712Z,48.77
2023-01-17T03:56:52.700Z,48.83
2023-01-17T03:57:52.713Z,49.06
2023-01-17T03:58:52.714Z,48.82
2023-01-17T03:59:52.712Z,48.89
2023-01-17T04:00:52.701Z,48.89
2023-01-17T04:01:52.712Z,49.03
2023-01-17T04:02:52.714Z,49.07
2023-01-17T04:03:52.700Z,48.93
2023-01-17T04:04:52.701Z,48.89
2023-01-17T04:05:52.714Z,48.74
2023-01-17T04:06:52.715Z,48.86
2023-01-17T04:07:52.699Z,48.69
2023-01-17T04:08:52.714Z,48.83
2023-01-17T04:09:52.714Z,48.76
2023-01-17T04:10:52.713Z,48.82
2023-01-17T04:11:52.701Z,48.71
2023-01-17T04:12:52.714Z,48.63
2023-01-17T04:13:52.714Z,48.75
2023-01-17T04:14:52.713Z,48.61
2023-01-17T04:15:52.702Z,48.82
2023-01-17T04:16:52.715Z,48.9
2023-01-17T04:17:52.715Z,48.92
2023-01-17T04:18:52.724Z,48.85
2023-01-17T04:19:52.702Z,48.92
2023-01-17T04:20:52.715Z,49.07
2023-01-17T04:21:52.716Z,48.94
2023-01-17T04:22:52.702Z,48.93
2023-01-17T04:23:52.703Z,48.91
2023-01-17T04:24:52.715Z,48.84
2023-01-17T04:25:52.714Z,48.77
2023-01-17T04:26:52.702Z,48.77
2023-01-17T04:27:52.716Z,48.62
2023-01-17T04:28:52.716Z,48.88
2023-01-17T04:29:52.715Z,48.7
2023-01-17T04:30:52.702Z,48.69
2023-01-17T04:31:52.715Z,48.68
2023-01-17T04:32:52.717Z,48.59
2023-01-17T04:33:52.716Z,48.67
2023-01-17T04:34:52.703Z,48.62
2023-01-17T04:35:52.779Z,48.6
2023-01-17T04:36:52.717Z,48.64
2023-01-17T04:37:52.703Z,48.68
2023-01-17T04:38:52.704Z,48.7
2023-01-17T04:39:52.716Z,48.62
2023-01-17T04:40:52.716Z,48.73
2023-01-17T04:41:52.703Z,48.61
2023-01-17T04:42:52.717Z,48.58
2023-01-17T04:43:52.716Z,48.65
2023-01-17T04:44:52.716Z,48.61
2023-01-17T04:45:52.704Z,48.6
2023-01-17T04:46:52.716Z,48.69
2023-01-17T04:47:52.761Z,48.76
2023-01-17T04:48:52.716Z,48.64
2023-01-17T04:49:52.705Z,48.61
2023-01-17T04:50:52.718Z,48.59
2023-01-17T04:51:52.718Z,48.5
2023-01-17T04:52:52.717Z,48.5
2023-01-17T04:53:52.705Z,48.49
2023-01-17T04:54:52.718Z,48.2
2023-01-17T04:55:52.718Z,48.58
2023-01-17T04:56:52.705Z,48.52
2023-01-17T04:57:52.705Z,48.49
2023-01-17T04:58:52.718Z,48.44
2023-01-17T04:59:52.759Z,48.55
2023-01-17T05:00:52.705Z,48.44
2023-01-17T05:01:52.719Z,48.43
2023-01-17T05:02:52.719Z,48.35
2023-01-17T05:03:52.719Z,48.15
2023-01-17T05:04:52.706Z,48.17
2023-01-17T05:05:52.719Z,48.17
2023-01-17T05:06:52.719Z,48.19
2023-01-17T05:07:52.718Z,48.4
2023-01-17T05:08:52.706Z,48.47
2023-01-17T05:09:52.719Z,48.53
2023-01-17T05:10:52.720Z,48.66
2023-01-17T05:11:52.704Z,48.81
2023-01-17T05:12:52.707Z,48.92
2023-01-17T05:13:52.720Z,48.8
2023-01-17T05:14:52.720Z,49.05
2023-01-17T05:15:52.706Z,49.14
2023-01-17T05:16:52.761Z,49.19
2023-01-17T05:17:52.720Z,49.38
2023-01-17T05:18:52.719Z,49.17
2023-01-17T05:19:52.707Z,49.3
2023-01-17T05:20:52.720Z,49.27
2023-01-17T05:21:52.720Z,49.43
2023-01-17T05:23:52.708Z,49.38
2023-01-17T05:24:52.720Z,49.55
2023-01-17T05:25:52.721Z,49.34
2023-01-17T05:26:52.720Z,49.34
2023-01-17T05:27:52.708Z,49.36
2023-01-17T05:28:52.721Z,49.55
2023-01-17T05:29:52.721Z,49.51
2023-01-17T05:30:52.708Z,49.52
2023-01-17T05:31:52.708Z,49.51
2023-01-17T05:32:52.721Z,49.67
2023-01-17T05:33:52.722Z,49.61
2023-01-17T05:34:52.708Z,49.49
2023-01-17T05:36:52.722Z,49.63
2023-01-17T05:37:52.721Z,49.5
2023-01-17T05:38:52.708Z,49.32
2023-01-17T05:39:52.722Z,49.39
2023-01-17T05:40:52.721Z,49.43
2023-01-17T05:41:52.722Z,49.44
2023-01-17T05:42:52.709Z,49.42
2023-01-17T05:43:52.722Z,49.52
2023-01-17T05:44:52.723Z,49.33
2023-01-17T05:45:52.722Z,49.38
2023-01-17T05:46:52.710Z,49.26
2023-01-17T05:47:52.722Z,49.28
2023-01-17T05:48:52.722Z,49.07
2023-01-17T05:49:52.709Z,49.01
2023-01-17T05:50:52.710Z,48.98
2023-01-17T05:51:52.723Z,48.82
2023-01-17T05:52:52.722Z,49.01
2023-01-17T05:53:52.710Z,48.87
2023-01-17T05:54:52.723Z,48.67
2023-01-17T05:56:52.722Z,48.82
2023-01-17T05:57:52.710Z,48.64
2023-01-17T05:58:52.723Z,48.54
2023-01-17T05:59:52.724Z,48.64
2023-01-17T06:00:52.722Z,48.63
2023-01-17T06:01:52.711Z,48.69
2023-01-17T06:02:52.724Z,48.64
2023-01-17T06:03:52.724Z,48.77
2023-01-17T06:04:52.710Z,48.79
2023-01-17T06:05:52.711Z,48.8
2023-01-17T06:06:52.724Z,48.8
2023-01-17T06:07:52.725Z,48.85
2023-01-17T06:08:52.711Z,48.81
2023-01-17T06:09:52.765Z,48.86
2023-01-17T06:10:52.724Z,48.9
2023-01-17T06:11:52.723Z,48.94
2023-01-17T06:12:52.711Z,49
2023-01-17T06:13:52.725Z,49.03
2023-01-17T06:14:52.725Z,49.2
2023-01-17T06:15:52.725Z,49.04
2023-01-17T06:16:52.712Z,49.1
2023-01-17T06:17:52.725Z,49.34
2023-01-17T06:18:52.725Z,49.16
2023-01-17T06:19:52.724Z,49.19
2023-01-17T06:20:52.712Z,49.2
2023-01-17T06:21:52.725Z,49.13
2023-01-17T06:22:52.725Z,49.33
2023-01-17T06:23:52.712Z,49.25
2023-01-17T06:24:52.712Z,49.23
2023-01-17T06:25:52.725Z,49.27
2023-01-17T06:26:52.749Z,49.28
2023-01-17T06:27:52.712Z,49.16
2023-01-17T06:28:52.726Z,49.06
2023-01-17T06:29:52.726Z,49.24
2023-01-17T06:30:52.726Z,49.09
2023-01-17T06:31:52.712Z,49.12
2023-01-17T06:32:52.726Z,49.15
2023-01-17T06:33:52.726Z,49.02
2023-01-17T06:34:52.725Z,49.11
2023-01-17T06:35:52.713Z,49.12
2023-01-17T06:36:52.726Z,49.11
2023-01-17T06:37:52.726Z,49.03
2023-01-17T06:38:52.713Z,49.06
2023-01-17T06:39:52.714Z,49.04
2023-01-17T06:40:52.727Z,49.02
2023-01-17T06:41:52.727Z,49.13
2023-01-17T06:42:52.713Z,49.02
2023-01-17T06:43:52.714Z,49.01
2023-01-17T06:44:52.726Z,48.91
2023-01-17T06:45:52.726Z,49.09
2023-01-17T06:46:52.714Z,49.03
2023-01-17T06:47:52.726Z,49.27
2023-01-17T06:48:52.727Z,48.97
2023-01-17T06:49:52.727Z,48.92
2023-01-17T06:50:52.714Z,49.02
2023-01-17T06:51:52.727Z,48.98
2023-01-17T06:52:52.727Z,48.9
2023-01-17T06:53:52.726Z,49.1
2023-01-17T06:54:52.715Z,49.2
2023-01-17T06:55:52.728Z,49.21
2023-01-17T06:56:52.728Z,49.18
2023-01-17T06:57:52.714Z,49.31
2023-01-17T06:58:52.715Z,49.29
2023-01-17T06:59:52.728Z,49.38
2023-01-17T07:00:52.729Z,49.3
2023-01-17T07:01:52.715Z,49.3
2023-01-17T07:02:52.770Z,49.35
2023-01-17T07:03:52.728Z,49.35
2023-01-17T07:04:52.728Z,49.24
2023-01-17T07:05:52.715Z,49.26
2023-01-17T07:06:52.728Z,49.12
2023-01-17T07:07:52.728Z,48.98
2023-01-17T07:08:52.728Z,49.02
2023-01-17T07:09:52.716Z,49
2023-01-17T07:10:52.728Z,48.98
2023-01-17T07:11:52.729Z,48.96
2023-01-17T07:12:52.729Z,48.88
2023-01-17T07:13:52.716Z,48.79
2023-01-17T07:14:52.729Z,48.95
2023-01-17T07:15:52.729Z,48.74
2023-01-17T07:16:52.715Z,48.72
2023-01-17T07:17:52.716Z,48.72
2023-01-17T07:18:52.729Z,48.7
2023-01-17T07:19:52.729Z,48.64
2023-01-17T07:20:52.716Z,48.81
2023-01-17T07:21:52.729Z,48.75
2023-01-17T07:22:52.728Z,48.97
2023-01-17T07:23:52.728Z,48.92
2023-01-17T07:24:52.716Z,48.93
2023-01-17T07:25:52.728Z,49.06
2023-01-17T07:26:52.772Z,48.84
2023-01-17T07:27:52.730Z,48.94
2023-01-17T07:28:52.717Z,48.96
2023-01-17T07:29:52.730Z,49.02
2023-01-17T07:30:52.730Z,48.94
2023-01-17T07:31:52.730Z,48.91
2023-01-17T07:32:52.716Z,48.92
2023-01-17T07:33:52.730Z,48.94
2023-01-17T07:34:52.730Z,48.88
2023-01-17T07:35:52.717Z,48.95
2023-01-17T07:36:52.717Z,48.97
2023-01-17T07:37:52.730Z,49.03
2023-01-17T07:38:52.771Z,49.18
2023-01-17T07:39:52.717Z,49.05
2023-01-17T07:40:52.730Z,49.08
2023-01-17T07:41:52.730Z,49.05
2023-01-17T07:42:52.729Z,48.96
2023-01-17T07:43:52.715Z,48.91
2023-01-17T07:44:52.731Z,48.93
2023-01-17T07:45:52.731Z,48.98
2023-01-17T07:46:52.730Z,48.76
2023-01-17T07:47:52.718Z,48.82
2023-01-17T07:48:52.731Z,48.75
2023-01-17T07:49:52.732Z,48.62
2023-01-17T07:50:52.718Z,48.74
2023-01-17T07:51:52.718Z,48.72
2023-01-17T07:52:52.731Z,48.63
2023-01-17T07:53:52.732Z,48.7
2023-01-17T07:54:52.716Z,48.59
2023-01-17T07:55:52.718Z,48.55
2023-01-17T07:56:52.730Z,48.3
2023-01-17T07:57:52.730Z,48.47
2023-01-17T07:58:52.718Z,48.5
2023-01-17T07:59:52.731Z,48.36
2023-01-17T08:00:52.732Z,48.63
2023-01-17T08:01:52.732Z,48.28
2023-01-17T08:02:52.717Z,48.34
2023-01-17T08:03:52.732Z,48.37
2023-01-17T08:04:52.733Z,48.39
2023-01-17T08:05:52.731Z,48.33
2023-01-17T08:06:52.719Z,48.31
2023-01-17T08:07:52.773Z,48.25
2023-01-17T08:08:52.732Z,48.48
2023-01-17T08:09:52.719Z,48.23
2023-01-17T08:10:52.719Z,48.13
2023-01-17T08:11:52.732Z,48.05
2023-01-17T08:12:52.732Z,47.95
2023-01-17T08:13:52.719Z,47.95
2023-01-17T08:14:52.732Z,47.9
2023-01-17T08:15:52.733Z,47.79
2023-01-17T08:16:52.733Z,47.74
2023-01-17T08:17:52.719Z,47.82
2023-01-17T08:18:52.733Z,47.75
2023-01-17T08:19:52.733Z,47.62
2023-01-17T08:20:52.732Z,47.63
2023-01-17T08:21:52.720Z,47.69
2023-01-17T08:22:52.733Z,47.86
2023-01-17T08:23:52.734Z,47.73
2023-01-17T08:24:52.718Z,47.62
2023-01-17T08:25:52.720Z,47.53
2023-01-17T08:26:52.732Z,47.53
2023-01-17T08:27:52.732Z,47.42
2023-01-17T08:28:52.720Z,47.34
2023-01-17T08:29:52.721Z,47.31
2023-01-17T08:30:52.733Z,47.11
2023-01-17T08:31:52.733Z,47.2
2023-01-17T08:32:52.720Z,47.18
2023-01-17T08:33:52.734Z,47.25
2023-01-17T08:34:52.734Z,47.34
2023-01-17T08:35:52.734Z,47.19
2023-01-17T08:36:52.721Z,47.23
2023-01-17T08:37:52.734Z,47.31
2023-01-17T08:38:52.735Z,47.48
2023-01-17T08:39:52.734Z,47.36
2023-01-17T08:40:52.721Z,47.41
2023-01-17T08:41:52.775Z,47.4
2023-01-17T08:42:52.734Z,47.26
2023-01-17T08:43:52.721Z,47.27
2023-01-17T08:44:52.722Z,47.23
2023-01-17T08:45:52.735Z,47.11
2023-01-17T08:46:52.735Z,47.14
2023-01-17T08:47:52.721Z,47.11
2023-01-17T08:48:52.735Z,46.98
2023-01-17T08:49:52.735Z,47.11
2023-01-17T08:50:52.735Z,46.95
2023-01-17T08:51:52.722Z,46.89
2023-01-17T08:53:52.736Z,46.69
2023-01-17T08:54:52.734Z,46.5
2023-01-17T08:55:52.723Z,46.49
2023-01-17T08:56:52.735Z,46.45
2023-01-17T08:57:52.736Z,46.23
2023-01-17T08:58:52.722Z,46.08
2023-01-17T08:59:52.723Z,46.02
2023-01-17T09:00:52.735Z,46.06
2023-01-17T09:01:52.737Z,45.93
2023-01-17T09:02:52.721Z,45.98
2023-01-17T09:03:52.723Z,45.97
2023-01-17T09:04:52.736Z,46
2023-01-17T09:05:52.736Z,46.03
2023-01-17T09:06:52.723Z,45.9
2023-01-17T09:07:52.736Z,45.95
2023-01-17T09:08:52.736Z,45.9
2023-01-17T09:09:52.737Z,45.66
2023-01-17T09:10:52.723Z,45.63
2023-01-17T09:11:52.737Z,45.57
2023-01-17T09:12:52.738Z,45.58
2023-01-17T09:13:52.736Z,45.43
2023-01-17T09:14:52.724Z,45.7
2023-01-17T09:15:52.737Z,45.86
2023-01-17T09:16:52.738Z,46.05
2023-01-17T09:17:52.722Z,46.04
2023-01-17T09:18:52.725Z,46.11
2023-01-17T09:20:52.739Z,46.13
2023-01-17T09:21:52.724Z,46.07
2023-01-17T09:22:52.779Z,45.92
2023-01-17T09:23:52.738Z,46.19
2023-01-17T09:24:52.738Z,46.15
2023-01-17T09:25:52.725Z,46
2023-01-17T09:26:52.737Z,45.92
2023-01-17T09:28:52.738Z,46.03
2023-01-17T09:29:52.726Z,46.03
2023-01-17T09:30:52.739Z,46.04
2023-01-17T09:31:52.739Z,46.17
2023-01-17T09:32:52.739Z,46.24
2023-01-17T09:33:52.726Z,46.21
2023-01-17T09:34:52.740Z,46.23
2023-01-17T09:35:52.739Z,46.44
2023-01-17T09:36:52.724Z,46.36
2023-01-17T09:37:52.725Z,46.32
2023-01-17T09:38:52.739Z,46.27
2023-01-17T09:39:52.803Z,46.19
2023-01-17T09:40:52.726Z,46.13
2023-01-17T09:41:52.740Z,45.97
2023-01-17T09:42:52.740Z,46.24
2023-01-17T09:43:52.740Z,45.96
2023-01-17T09:44:52.727Z,46.03
2023-01-17T09:45:52.740Z,45.85
2023-01-17T09:46:52.741Z,45.93
2023-01-17T09:47:52.740Z,45.92
2023-01-17T09:48:52.728Z,45.96
2023-01-17T09:49:52.741Z,45.87
2023-01-17T09:50:52.742Z,46.02
2023-01-17T09:51:52.727Z,45.99
2023-01-17T09:52:52.728Z,45.89
2023-01-17T09:54:52.741Z,45.91
2023-01-17T09:55:52.728Z,46.03
2023-01-17T09:56:52.729Z,45.98
2023-01-17T09:57:52.740Z,45.98
2023-01-17T09:58:52.741Z,45.87
2023-01-17T09:59:52.727Z,45.93
2023-01-17T10:00:52.742Z,45.97
2023-01-17T10:01:52.742Z,45.63
2023-01-17T10:02:52.742Z,45.73
2023-01-17T10:03:52.729Z,45.71
2023-01-17T10:04:52.742Z,45.49
2023-01-17T10:05:52.742Z,45.45
2023-01-17T10:06:52.741Z,45.46
2023-01-17T10:07:52.730Z,45.57
2023-01-17T10:08:52.743Z,45.79
2023-01-17T10:09:52.743Z,45.41
2023-01-17T10:10:52.729Z,45.66
2023-01-17T10:11:52.730Z,45.64
2023-01-17T10:12:52.742Z,45.6
2023-01-17T10:13:52.744Z,45.48
2023-01-17T10:14:52.730Z,45.55
2023-01-17T10:15:52.783Z,45.63
2023-01-17T10:16:52.743Z,45.76
2023-01-17T10:17:52.743Z,45.83
2023-01-17T10:18:52.730Z,45.82
2023-01-17T10:19:52.744Z,45.78
2023-01-17T10:20:52.743Z,45.85
2023-01-17T10:21:52.743Z,46.02
2023-01-17T10:22:52.731Z,46.13
2023-01-17T10:23:52.743Z,46.3
2023-01-17T10:24:52.744Z,46.22
2023-01-17T10:25:52.744Z,46.14
2023-01-17T10:26:52.732Z,46.16
2023-01-17T10:27:52.745Z,46
2023-01-17T10:28:52.746Z,45.83
2023-01-17T10:29:52.732Z,45.79
2023-01-17T10:30:52.732Z,45.68
2023-01-17T10:31:52.745Z,45.59
2023-01-17T10:32:52.745Z,45.52
2023-01-17T10:33:52.732Z,45.43
2023-01-17T10:34:52.746Z,45.77
2023-01-17T10:35:52.745Z,45.42
2023-01-17T10:36:52.746Z,45.35
2023-01-17T10:37:52.732Z,45.32
2023-01-17T10:38:52.745Z,45.19
2023-01-17T10:39:52.746Z,45.51
2023-01-17T10:40:52.746Z,45.42
2023-01-17T10:41:52.734Z,45.42
2023-01-17T10:42:52.747Z,45.16
2023-01-17T10:43:52.747Z,45.25
2023-01-17T10:44:52.747Z,45.27
2023-01-17T10:45:52.734Z,45.04
2023-01-17T10:46:52.747Z,45.03
2023-01-17T10:47:52.748Z,44.96
2023-01-17T10:48:52.734Z,44.91
2023-01-17T10:49:52.735Z,44.98
2023-01-17T10:50:52.746Z,44.9
2023-01-17T10:51:52.747Z,45.08
2023-01-17T10:52:52.734Z,45.16
2023-01-17T10:53:52.748Z,45.21
2023-01-17T10:54:52.748Z,45.21
2023-01-17T10:55:52.748Z,45.49
2023-01-17T10:56:52.733Z,45.53
2023-01-17T10:57:52.748Z,45.52
2023-01-17T10:58:52.749Z,45.59
2023-01-17T10:59:52.748Z,45.41
2023-01-17T11:00:52.736Z,45.46
2023-01-17T11:01:52.749Z,45.26
2023-01-17T11:02:52.750Z,45.46
2023-01-17T11:03:52.736Z,45.37
2023-01-17T11:04:52.736Z,45.34
2023-01-17T11:05:52.748Z,45.4
2023-01-17T11:06:52.749Z,44.92
2023-01-17T11:07:52.736Z,44.95
2023-01-17T11:08:52.791Z,45.1
2023-01-17T11:09:52.750Z,44.87
2023-01-17T11:10:52.749Z,44.89
2023-01-17T11:11:52.737Z,44.77
2023-01-17T11:12:52.749Z,44.91
2023-01-17T11:13:52.750Z,45.24
2023-01-17T11:14:52.749Z,45.15
2023-01-17T11:15:52.738Z,45.22
2023-01-17T11:16:52.751Z,45.28
2023-01-17T11:17:52.752Z,45.31
2023-01-17T11:18:52.750Z,45.2
2023-01-17T11:19:52.736Z,45.33
2023-01-17T11:20:52.750Z,45.38
2023-01-17T11:21:52.752Z,45.07
2023-01-17T11:22:52.738Z,45.33
2023-01-17T11:23:52.739Z,45.32
2023-01-17T11:24:52.752Z,45.14
2023-01-17T11:25:52.751Z,45.23
2023-01-17T11:26:52.737Z,45.06
2023-01-17T11:27:52.752Z,44.99
2023-01-17T11:28:52.752Z,45.2
2023-01-17T11:29:52.752Z,45.24
2023-01-17T11:30:52.739Z,45.33
2023-01-17T11:31:52.753Z,45.44
2023-01-17T11:32:52.754Z,45.62
2023-01-17T11:33:52.753Z,45.28
2023-01-17T11:34:52.739Z,45.53
2023-01-17T11:35:52.753Z,45.49
2023-01-17T11:36:52.754Z,45.31
2023-01-17T11:37:52.738Z,45.22
2023-01-17T11:38:52.741Z,45.04
2023-01-17T11:39:52.753Z,45.08
2023-01-17T11:40:52.755Z,44.82
2023-01-17T11:41:52.740Z,45.25
2023-01-17T11:42:52.741Z,45.45
2023-01-17T11:43:52.753Z,45.5
2023-01-17T11:44:52.754Z,45.34
2023-01-17T11:45:52.741Z,45.39
2023-01-17T11:46:52.754Z,45.25
2023-01-17T11:47:52.754Z,45
2023-01-17T11:48:52.755Z,45.09
2023-01-17T11:49:52.742Z,44.94
2023-01-17T11:50:52.755Z,44.87
2023-01-17T11:51:52.756Z,44.81
2023-01-17T11:52:52.755Z,45.03
2023-01-17T11:53:52.743Z,45.16
2023-01-17T11:54:52.820Z,45.13
2023-01-17T11:55:52.756Z,44.95
2023-01-17T11:56:52.743Z,44.82
2023-01-17T11:57:52.743Z,44.79
2023-01-17T11:58:52.755Z,44.94
2023-01-17T11:59:52.756Z,44.98
2023-01-17T12:00:52.743Z,44.04
2023-01-17T12:01:52.757Z,42.73
2023-01-17T12:02:52.757Z,41.29
2023-01-17T12:03:52.756Z,39.79
2023-01-17T12:04:52.744Z,38.65
2023-01-17T12:05:52.758Z,37.78
2023-01-17T12:06:52.802Z,37.06
2023-01-17T12:07:52.757Z,36.7
2023-01-17T12:08:52.745Z,36.22
2023-01-17T12:09:52.759Z,36.18
2023-01-17T12:10:52.759Z,36.09
2023-01-17T12:11:52.760Z,35.7
2023-01-17T12:12:52.747Z,35.28
2023-01-17T12:13:52.760Z,35
2023-01-17T12:14:52.761Z,34.63
2023-01-17T12:15:52.747Z,34.59
2023-01-17T12:16:52.747Z,34.65
2023-01-17T12:17:52.761Z,34.47
2023-01-17T12:18:52.803Z,34.13
2023-01-17T12:19:52.749Z,34.17
2023-01-17T12:20:52.762Z,34.29
2023-01-17T12:21:52.763Z,34.18
2023-01-17T12:22:52.763Z,34.28
2023-01-17T12:23:52.750Z,34.3
2023-01-17T12:24:52.764Z,34.39
2023-01-17T12:25:52.765Z,34.03
2023-01-17T12:26:52.765Z,33.77
2023-01-17T12:27:52.753Z,33.96
2023-01-17T12:28:52.766Z,34.38
2023-01-17T12:29:52.766Z,34.36
2023-01-17T12:30:52.753Z,34.48
2023-01-17T12:31:52.752Z,34.15
2023-01-17T12:32:52.767Z,33.72
2023-01-17T12:33:52.768Z,33.47
2023-01-17T12:34:52.755Z,33.36
2023-01-17T12:35:52.756Z,33.5
2023-01-17T12:36:52.769Z,33.28
2023-01-17T12:37:52.768Z,33.55
2023-01-17T12:38:52.757Z,33.88
2023-01-17T12:39:52.770Z,33.84
2023-01-17T12:40:52.771Z,34.28
2023-01-17T12:41:52.771Z,34.94
2023-01-17T12:42:52.758Z,35.82
2023-01-17T12:43:52.771Z,36.67
2023-01-17T12:44:52.773Z,37.55
2023-01-17T12:45:52.773Z,38.37
2023-01-17T12:46:52.760Z,39.37
2023-01-17T12:47:52.774Z,40.01
2023-01-17T12:48:52.774Z,40.4
2023-01-17T12:50:52.762Z,41.48
2023-01-17T12:54:00.995Z,42.54
2023-01-17T12:55:00.996Z,42.81
2023-01-17T12:56:10.270Z,43.17
2023-01-17T12:57:10.270Z,43.33
2023-01-17T12:58:02.021Z,43.47
2023-01-17T12:59:02.023Z,43.64
2023-01-17T12:59:52.778Z,44.15
2023-01-17T13:00:52.779Z,44.49
2023-01-17T13:01:52.765Z,45.04
2023-01-17T13:02:52.766Z,45.28
2023-01-17T13:03:52.779Z,45.14
2023-01-17T13:04:52.781Z,45.1
2023-01-17T13:05:52.767Z,45.44